createdAt,value
2022-08-22T00:00:25.884Z,0.00
2022-08-22T00:01:25.988Z,0.00
2022-08-22T00:02:26.229Z,0.00
2022-08-22T00:02:56.593Z,0.00
2022-08-22T00:02:57.787Z,0.00
2022-08-22T00:03:11.735Z,0.00
2022-08-22T00:03:15.293Z,0.00
2022-08-22T00:03:16.084Z,0.00
2022-08-22T00:03:26.248Z,0.00
2022-08-22T00:04:26.393Z,0.00
2022-08-22T00:05:26.546Z,0.00
2022-08-22T00:06:26.703Z,0.00
2022-08-22T00:07:26.843Z,0.00
2022-08-22T00:08:27.004Z,0.00
2022-08-22T00:09:27.166Z,0.00
2022-08-22T00:10:27.320Z,0.00
2022-08-22T00:11:27.489Z,0.00
2022-08-22T00:12:27.621Z,0.00
2022-08-22T00:13:27.777Z,0.00
2022-08-22T00:14:27.950Z,0.00
2022-08-22T00:15:43.416Z,0.00
2022-08-22T00:16:29.209Z,0.00
2022-08-22T00:17:28.345Z,0.00
2022-08-22T00:18:28.493Z,0.00
2022-08-22T00:19:28.650Z,0.00
2022-08-22T00:20:28.799Z,0.00
2022-08-22T00:21:28.956Z,0.00
2022-08-22T00:22:29.104Z,0.00
2022-08-22T00:23:29.273Z,0.00
2022-08-22T00:24:29.449Z,0.00
2022-08-22T00:25:29.599Z,0.00
2022-08-22T00:26:29.756Z,0.00
2022-08-22T00:27:29.900Z,0.00
2022-08-22T00:28:30.062Z,0.00
2022-08-22T00:29:30.241Z,0.00
2022-08-22T00:30:30.424Z,0.00
2022-08-22T00:31:30.588Z,0.00
2022-08-22T00:32:30.749Z,0.00
2022-08-22T00:33:30.918Z,0.00
2022-08-22T00:34:31.089Z,0.00
2022-08-22T00:35:31.249Z,0.00
2022-08-22T00:36:31.397Z,0.00
2022-08-22T00:37:31.556Z,0.00
2022-08-22T00:38:31.718Z,0.00
2022-08-22T00:39:31.893Z,0.00
2022-08-22T00:40:32.062Z,0.00
2022-08-22T00:41:32.218Z,0.00
2022-08-22T00:42:32.435Z,0.00
2022-08-22T00:43:32.559Z,0.00
2022-08-22T00:44:32.725Z,0.00
2022-08-22T00:45:32.879Z,0.00
2022-08-22T00:46:33.028Z,0.00
2022-08-22T00:47:33.183Z,0.00
2022-08-22T00:48:33.347Z,0.00
2022-08-22T00:49:33.518Z,0.00
2022-08-22T00:50:33.691Z,0.00
2022-08-22T00:51:33.853Z,0.00
2022-08-22T00:52:34.016Z,0.00
2022-08-22T00:53:34.157Z,0.00
2022-08-22T00:54:34.330Z,0.00
2022-08-22T00:55:34.983Z,0.00
2022-08-22T00:56:34.612Z,0.00
2022-08-22T00:57:34.775Z,0.00
2022-08-22T00:58:34.928Z,0.00
2022-08-22T00:59:35.087Z,0.00
2022-08-22T01:00:36.422Z,0.00
2022-08-22T01:01:35.420Z,0.00
2022-08-22T01:02:35.467Z,0.00
2022-08-22T01:03:35.615Z,0.00
2022-08-22T01:04:35.792Z,0.00
2022-08-22T01:05:35.945Z,0.00
2022-08-22T01:06:36.111Z,0.00
2022-08-22T01:07:38.346Z,0.00
2022-08-22T01:08:36.413Z,0.00
2022-08-22T01:09:36.576Z,0.00
2022-08-22T01:10:36.730Z,0.00
2022-08-22T01:11:36.864Z,0.00
2022-08-22T01:12:37.005Z,0.00
2022-08-22T01:13:37.152Z,0.00
2022-08-22T01:14:37.324Z,0.00
2022-08-22T01:15:37.460Z,0.00
2022-08-22T01:16:37.609Z,0.00
2022-08-22T01:17:37.763Z,0.00
2022-08-22T01:18:37.924Z,0.00
2022-08-22T01:19:38.108Z,0.00
2022-08-22T01:20:38.275Z,0.00
2022-08-22T01:21:38.428Z,0.00
2022-08-22T01:22:38.573Z,0.00
2022-08-22T01:23:40.535Z,0.00
2022-08-22T01:24:38.948Z,0.00
2022-08-22T01:25:39.115Z,0.00
2022-08-22T01:26:39.271Z,0.00
2022-08-22T01:27:39.468Z,0.00
2022-08-22T01:28:39.605Z,0.00
2022-08-22T01:29:39.796Z,0.00
2022-08-22T01:30:39.900Z,0.00
2022-08-22T01:31:40.042Z,0.00
2022-08-22T01:32:40.183Z,0.00
2022-08-22T01:33:40.322Z,0.00
2022-08-22T01:34:40.483Z,0.00
2022-08-22T01:35:40.634Z,0.00
2022-08-22T01:36:40.783Z,0.00
2022-08-22T01:37:43.540Z,0.00
2022-08-22T01:38:41.091Z,0.00
2022-08-22T01:39:41.297Z,0.00
2022-08-22T01:40:53.461Z,0.00
2022-08-22T01:41:42.511Z,0.00
2022-08-22T01:42:41.669Z,0.00
2022-08-22T01:43:59.200Z,0.00
2022-08-22T01:44:42.936Z,0.00
2022-08-22T01:45:42.079Z,0.00
2022-08-22T01:46:42.240Z,0.00
2022-08-22T01:47:42.392Z,0.00
2022-08-22T01:48:42.550Z,0.00
2022-08-22T01:49:42.709Z,0.00
2022-08-22T01:50:42.891Z,0.00
2022-08-22T01:51:43.041Z,0.00
2022-08-22T01:52:43.206Z,0.00
2022-08-22T01:53:43.361Z,0.00
2022-08-22T01:54:43.540Z,0.00
2022-08-22T01:55:43.696Z,0.00
2022-08-22T01:56:43.859Z,0.00
2022-08-22T01:57:44.010Z,0.00
2022-08-22T01:58:44.170Z,0.00
2022-08-22T01:59:44.331Z,0.00
2022-08-22T02:00:44.528Z,0.00
2022-08-22T02:01:44.695Z,0.00
2022-08-22T02:02:44.860Z,0.00
2022-08-22T02:03:45.004Z,0.00
2022-08-22T02:04:45.181Z,0.00
2022-08-22T02:05:45.320Z,0.00
2022-08-22T02:06:45.478Z,0.00
2022-08-22T02:07:45.634Z,0.00
2022-08-22T02:08:45.786Z,0.00
2022-08-22T02:09:45.958Z,0.00
2022-08-22T02:10:46.089Z,0.00
2022-08-22T02:11:46.247Z,0.00
2022-08-22T02:12:46.413Z,0.00
2022-08-22T02:13:46.574Z,0.00
2022-08-22T02:14:46.768Z,0.00
2022-08-22T02:15:46.938Z,0.00
2022-08-22T02:16:47.482Z,0.00
2022-08-22T02:17:47.206Z,0.00
2022-08-22T02:18:47.365Z,0.00
2022-08-22T02:19:47.538Z,0.00
2022-08-22T02:20:47.714Z,0.00
2022-08-22T02:21:47.867Z,0.00
2022-08-22T02:22:48.025Z,0.00
2022-08-22T02:23:48.181Z,0.00
2022-08-22T02:24:48.377Z,0.00
2022-08-22T02:25:48.535Z,0.00
2022-08-22T02:26:48.686Z,0.00
2022-08-22T02:27:48.838Z,0.00
2022-08-22T02:28:57.275Z,0.00
2022-08-22T02:29:50.133Z,0.00
2022-08-22T02:30:49.277Z,0.00
2022-08-22T02:31:49.433Z,0.00
2022-08-22T02:32:49.585Z,0.00
2022-08-22T02:33:49.757Z,0.00
2022-08-22T02:34:49.916Z,0.00
2022-08-22T02:35:50.087Z,0.00
2022-08-22T02:36:50.229Z,0.00
2022-08-22T02:37:50.385Z,0.00
2022-08-22T02:38:50.544Z,0.00
2022-08-22T02:39:50.765Z,0.00
2022-08-22T02:40:50.917Z,0.00
2022-08-22T02:41:51.070Z,0.00
2022-08-22T02:42:51.244Z,0.00
2022-08-22T02:43:51.393Z,0.00
2022-08-22T02:44:51.554Z,0.00
2022-08-22T02:45:51.703Z,0.00
2022-08-22T02:46:51.863Z,0.00
2022-08-22T02:47:52.074Z,0.00
2022-08-22T02:48:52.123Z,0.00
2022-08-22T02:49:52.264Z,0.00
2022-08-22T02:50:52.435Z,0.00
2022-08-22T02:51:52.536Z,0.00
2022-08-22T02:52:52.689Z,0.00
2022-08-22T02:53:52.851Z,0.00
2022-08-22T02:54:53.005Z,0.00
2022-08-22T02:55:53.177Z,0.00
2022-08-22T02:56:53.329Z,0.00
2022-08-22T02:57:53.484Z,0.00
2022-08-22T02:58:53.634Z,0.00
2022-08-22T02:59:53.800Z,0.00
2022-08-22T03:00:54.013Z,0.00
2022-08-22T03:01:54.082Z,0.00
2022-08-22T03:02:54.242Z,0.00
2022-08-22T03:03:54.388Z,0.00
2022-08-22T03:04:55.622Z,0.00
2022-08-22T03:05:59.028Z,0.00
2022-08-22T03:06:55.902Z,0.00
2022-08-22T03:07:55.069Z,0.00
2022-08-22T03:08:55.239Z,0.00
2022-08-22T03:09:55.404Z,0.00
2022-08-22T03:10:55.577Z,0.00
2022-08-22T03:11:55.732Z,0.00
2022-08-22T03:12:57.600Z,0.00
2022-08-22T03:13:55.980Z,0.00
2022-08-22T03:14:56.185Z,0.00
2022-08-22T03:15:56.360Z,0.00
2022-08-22T03:16:56.502Z,0.00
2022-08-22T03:17:56.654Z,0.00
2022-08-22T03:18:56.812Z,0.00
2022-08-22T03:19:56.962Z,0.00
2022-08-22T03:20:57.135Z,0.00
2022-08-22T03:21:57.291Z,0.00
2022-08-22T03:22:57.439Z,0.00
2022-08-22T03:23:57.593Z,0.00
2022-08-22T03:24:57.756Z,0.00
2022-08-22T03:25:57.924Z,0.00
2022-08-22T03:26:58.080Z,0.00
2022-08-22T03:27:58.237Z,0.00
2022-08-22T03:28:59.791Z,0.00
2022-08-22T03:29:58.561Z,0.00
2022-08-22T03:30:58.738Z,0.00
2022-08-22T03:31:58.901Z,4.00
2022-08-22T03:32:59.063Z,4.00
2022-08-22T03:33:59.216Z,4.00
2022-08-22T03:34:59.372Z,0.00
2022-08-22T03:35:59.540Z,4.00
2022-08-22T03:36:59.701Z,4.00
2022-08-22T03:37:59.976Z,8.00
2022-08-22T03:39:00.008Z,4.00
2022-08-22T03:40:00.364Z,8.00
2022-08-22T03:41:00.378Z,8.00
2022-08-22T03:42:00.527Z,12.00
2022-08-22T03:43:00.685Z,12.00
2022-08-22T03:44:00.834Z,12.00
2022-08-22T03:45:00.998Z,12.00
2022-08-22T03:46:01.169Z,16.00
2022-08-22T03:47:01.339Z,20.00
2022-08-22T03:48:01.494Z,20.00
2022-08-22T03:49:01.656Z,24.00
2022-08-22T03:50:01.814Z,24.00
2022-08-22T03:51:01.990Z,28.00
2022-08-22T03:52:02.133Z,36.00
2022-08-22T03:53:02.283Z,40.00
2022-08-22T03:54:02.437Z,44.00
2022-08-22T03:55:02.597Z,52.00
2022-08-22T03:56:02.767Z,52.00
2022-08-22T03:57:02.963Z,60.00
2022-08-22T03:58:03.110Z,68.00
2022-08-22T03:59:03.266Z,76.00
2022-08-22T04:00:04.376Z,84.00
2022-08-22T04:01:03.639Z,88.00
2022-08-22T04:02:03.697Z,96.00
2022-08-22T04:03:04.806Z,108.00
2022-08-22T04:04:03.981Z,116.00
2022-08-22T04:05:04.116Z,128.00
2022-08-22T04:06:04.242Z,144.00
2022-08-22T04:07:05.458Z,156.00
2022-08-22T04:08:05.463Z,168.00
2022-08-22T04:09:04.636Z,184.00
2022-08-22T04:10:04.732Z,200.00
2022-08-22T04:11:04.909Z,216.00
2022-08-22T04:12:05.066Z,232.00
2022-08-22T04:13:05.219Z,248.00
2022-08-22T04:14:12.386Z,268.00
2022-08-22T04:15:05.523Z,284.00
2022-08-22T04:16:05.702Z,304.00
2022-08-22T04:17:05.865Z,324.00
2022-08-22T04:18:06.017Z,344.00
2022-08-22T04:19:08.024Z,364.00
2022-08-22T04:20:06.388Z,384.00
2022-08-22T04:21:06.567Z,412.00
2022-08-22T04:22:06.738Z,432.00
2022-08-22T04:23:06.936Z,456.00
2022-08-22T04:24:07.088Z,480.00
2022-08-22T04:25:08.245Z,504.00
2022-08-22T04:26:10.703Z,528.00
2022-08-22T04:27:08.459Z,552.00
2022-08-22T04:28:07.600Z,576.00
2022-08-22T04:29:07.745Z,604.00
2022-08-22T04:30:07.907Z,636.00
2022-08-22T04:31:08.098Z,664.00
2022-08-22T04:32:11.560Z,700.00
2022-08-22T04:33:09.384Z,732.00
2022-08-22T04:34:08.523Z,756.00
2022-08-22T04:35:08.689Z,784.00
2022-08-22T04:36:08.857Z,808.00
2022-08-22T04:37:08.920Z,832.00
2022-08-22T04:38:09.321Z,856.00
2022-08-22T04:39:09.263Z,872.00
2022-08-22T04:40:09.651Z,896.00
2022-08-22T04:41:09.554Z,912.00
2022-08-22T04:42:31.187Z,928.00
2022-08-22T04:43:10.819Z,944.00
2022-08-22T04:44:09.971Z,960.00
2022-08-22T04:45:10.159Z,972.00
2022-08-22T04:46:10.337Z,988.00
2022-08-22T04:47:10.523Z,1004.00
2022-08-22T04:48:10.687Z,1020.00
2022-08-22T04:49:10.885Z,1036.00
2022-08-22T04:50:11.044Z,1056.00
2022-08-22T04:51:11.257Z,1072.00
2022-08-22T04:52:11.303Z,1088.00
2022-08-22T04:53:11.457Z,1112.00
2022-08-22T04:54:11.622Z,1128.00
2022-08-22T04:55:11.769Z,1148.00
2022-08-22T04:56:11.933Z,1168.00
2022-08-22T04:57:12.083Z,1188.00
2022-08-22T04:58:12.254Z,1212.00
2022-08-22T04:59:12.395Z,1236.00
2022-08-22T05:00:12.549Z,1256.00
2022-08-22T05:01:12.732Z,1276.00
2022-08-22T05:02:12.919Z,1300.00
2022-08-22T05:03:13.070Z,1316.00
2022-08-22T05:04:13.216Z,1336.00
2022-08-22T05:05:13.950Z,1364.00
2022-08-22T05:06:13.560Z,1392.00
2022-08-22T05:07:13.722Z,1420.00
2022-08-22T05:08:13.872Z,1456.00
2022-08-22T05:09:16.178Z,1488.00
2022-08-22T05:10:14.118Z,1528.00
2022-08-22T05:11:14.288Z,1568.00
2022-08-22T05:12:14.430Z,1608.00
2022-08-22T05:13:14.588Z,1648.00
2022-08-22T05:14:14.745Z,1692.00
2022-08-22T05:15:14.898Z,1728.00
2022-08-22T05:16:15.093Z,1768.00
2022-08-22T05:17:15.662Z,1800.00
2022-08-22T05:18:15.387Z,1840.00
2022-08-22T05:19:16.870Z,1872.00
2022-08-22T05:20:15.732Z,1900.00
2022-08-22T05:21:15.900Z,1932.00
2022-08-22T05:22:16.098Z,1968.00
2022-08-22T05:23:17.261Z,2008.00
2022-08-22T05:24:16.352Z,2056.00
2022-08-22T05:25:16.496Z,2100.00
2022-08-22T05:26:16.682Z,2148.00
2022-08-22T05:27:16.837Z,2200.00
2022-08-22T05:28:16.990Z,2248.00
2022-08-22T05:29:17.172Z,2296.00
2022-08-22T05:30:17.315Z,2348.00
2022-08-22T05:31:17.512Z,2412.00
2022-08-22T05:32:18.614Z,2476.00
2022-08-22T05:33:17.747Z,2536.00
2022-08-22T05:34:17.961Z,2604.00
2022-08-22T05:35:17.992Z,2656.00
2022-08-22T05:36:18.186Z,2716.00
2022-08-22T05:37:18.375Z,2772.00
2022-08-22T05:38:18.527Z,2824.00
2022-08-22T05:39:18.689Z,2880.00
2022-08-22T05:40:18.925Z,2940.00
2022-08-22T05:41:18.988Z,3004.00
2022-08-22T05:42:19.057Z,3060.00
2022-08-22T05:43:19.217Z,3120.00
2022-08-22T05:44:19.372Z,3180.00
2022-08-22T05:45:19.536Z,3244.00
2022-08-22T05:46:19.710Z,3312.00
2022-08-22T05:47:19.784Z,3384.00
2022-08-22T05:48:19.959Z,3452.00
2022-08-22T05:49:20.139Z,3516.00
2022-08-22T05:50:20.277Z,3576.00
2022-08-22T05:51:20.456Z,3632.00
2022-08-22T05:52:20.514Z,3668.00
2022-08-22T05:53:20.677Z,3712.00
2022-08-22T05:54:20.846Z,3756.00
2022-08-22T05:55:21.943Z,3808.00
2022-08-22T05:56:21.110Z,3888.00
2022-08-22T05:57:21.255Z,3980.00
2022-08-22T05:58:21.429Z,4056.00
2022-08-22T05:59:21.624Z,4104.00
2022-08-22T06:00:21.678Z,4160.00
2022-08-22T06:01:21.892Z,4208.00
2022-08-22T06:02:21.936Z,4256.00
2022-08-22T06:03:22.075Z,4296.00
2022-08-22T06:04:22.268Z,4352.00
2022-08-22T06:05:22.404Z,4408.00
2022-08-22T06:06:22.578Z,4408.00
2022-08-22T06:07:22.723Z,4324.00
2022-08-22T06:08:22.861Z,4248.00
2022-08-22T06:09:23.013Z,4204.00
2022-08-22T06:10:23.195Z,4164.00
2022-08-22T06:11:23.265Z,4172.00
2022-08-22T06:12:23.306Z,4208.00
2022-08-22T06:13:24.455Z,4228.00
2022-08-22T06:14:24.846Z,4352.00
2022-08-22T06:15:23.614Z,4288.00
2022-08-22T06:16:23.781Z,4260.00
2022-08-22T06:17:23.982Z,4228.00
2022-08-22T06:18:24.008Z,4208.00
2022-08-22T06:19:24.175Z,4180.00
2022-08-22T06:20:24.333Z,4108.00
2022-08-22T06:21:24.485Z,4180.00
2022-08-22T06:22:24.639Z,4136.00
2022-08-22T06:23:24.735Z,4096.00
2022-08-22T06:24:24.876Z,4020.00
2022-08-22T06:25:25.019Z,3860.00
2022-08-22T06:26:25.217Z,3808.00
2022-08-22T06:27:25.277Z,3760.00
2022-08-22T06:28:25.510Z,3800.00
2022-08-22T06:29:25.548Z,3904.00
2022-08-22T06:30:25.684Z,4052.00
2022-08-22T06:31:25.885Z,4268.00
2022-08-22T06:32:30.788Z,4352.00
2022-08-22T06:33:26.993Z,4324.00
2022-08-22T06:34:26.174Z,4340.00
2022-08-22T06:35:26.290Z,4372.00
2022-08-22T06:36:26.473Z,4372.00
2022-08-22T06:37:26.500Z,4316.00
2022-08-22T06:38:26.635Z,4264.00
2022-08-22T06:39:26.783Z,4220.00
2022-08-22T06:40:26.966Z,4228.00
2022-08-22T06:41:27.083Z,4288.00
2022-08-22T06:42:27.247Z,4504.00
2022-08-22T06:43:27.284Z,4384.00
2022-08-22T06:44:27.414Z,4348.00
2022-08-22T06:45:27.593Z,4248.00
2022-08-22T06:46:27.751Z,4220.00
2022-08-22T06:47:27.757Z,4168.00
2022-08-22T06:48:27.900Z,4284.00
2022-08-22T06:49:28.054Z,4484.00
2022-08-22T06:50:28.193Z,4544.00
2022-08-22T06:51:28.347Z,4604.00
2022-08-22T06:52:28.494Z,4660.00
2022-08-22T06:53:28.633Z,4692.00
2022-08-22T06:54:32.557Z,4764.00
2022-08-22T06:55:29.863Z,4868.00
2022-08-22T06:56:29.032Z,4976.00
2022-08-22T06:57:29.168Z,5244.00
2022-08-22T06:58:33.896Z,5476.00
2022-08-22T06:59:30.367Z,5592.00
2022-08-22T07:00:29.507Z,5704.00
2022-08-22T07:01:29.727Z,5872.00
2022-08-22T07:02:29.756Z,6036.00
2022-08-22T07:03:29.992Z,6216.00
2022-08-22T07:04:30.068Z,6360.00
2022-08-22T07:05:30.086Z,6436.00
2022-08-22T07:06:30.233Z,6516.00
2022-08-22T07:07:30.377Z,6628.00
2022-08-22T07:08:30.480Z,6632.00
2022-08-22T07:09:30.605Z,6764.00
2022-08-22T07:10:30.897Z,6892.00
2022-08-22T07:11:30.914Z,6988.00
2022-08-22T07:12:30.934Z,7124.00
2022-08-22T07:13:31.073Z,7224.00
2022-08-22T07:14:31.267Z,7312.00
2022-08-22T07:15:31.259Z,7336.00
2022-08-22T07:16:31.413Z,7148.00
2022-08-22T07:17:31.515Z,7132.00
2022-08-22T07:18:31.625Z,7344.00
2022-08-22T07:19:31.767Z,7472.00
2022-08-22T07:20:31.897Z,7480.00
2022-08-22T07:21:32.578Z,7512.00
2022-08-22T07:22:32.148Z,7504.00
2022-08-22T07:23:32.283Z,7592.00
2022-08-22T07:24:32.365Z,7648.00
2022-08-22T07:25:32.534Z,7724.00
2022-08-22T07:26:32.580Z,7780.00
2022-08-22T07:27:32.646Z,7900.00
2022-08-22T07:28:37.196Z,8012.00
2022-08-22T07:29:33.774Z,7964.00
2022-08-22T07:30:32.798Z,7992.00
2022-08-22T07:31:32.960Z,8048.00
2022-08-22T07:32:32.961Z,8060.00
2022-08-22T07:33:33.075Z,8040.00
2022-08-22T07:34:33.227Z,8036.00
2022-08-22T07:35:33.271Z,8052.00
2022-08-22T07:36:33.408Z,8088.00
2022-08-22T07:37:33.523Z,8176.00
2022-08-22T07:38:33.618Z,8292.00
2022-08-22T07:39:33.726Z,8460.00
2022-08-22T07:40:33.827Z,8600.00
2022-08-22T07:41:33.849Z,9100.00
2022-08-22T07:42:33.954Z,10160.00
2022-08-22T07:43:34.115Z,10788.00
2022-08-22T07:44:34.276Z,10216.00
2022-08-22T07:45:34.279Z,9424.00
2022-08-22T07:46:34.433Z,9716.00
2022-08-22T07:47:34.449Z,9832.00
2022-08-22T07:48:38.298Z,10012.00
2022-08-22T07:49:35.636Z,10184.00
2022-08-22T07:50:34.753Z,10356.00
2022-08-22T07:51:34.869Z,10580.00
2022-08-22T07:52:34.968Z,10780.00
2022-08-22T07:53:35.069Z,10956.00
2022-08-22T07:54:35.221Z,11132.00
2022-08-22T07:55:35.255Z,11304.00
2022-08-22T07:56:36.346Z,11428.00
2022-08-22T07:57:35.459Z,11568.00
2022-08-22T07:58:35.557Z,11704.00
2022-08-22T07:59:35.684Z,11848.00
2022-08-22T08:00:35.788Z,11972.00
2022-08-22T08:01:35.961Z,12128.00
2022-08-22T08:02:36.005Z,12252.00
2022-08-22T08:03:35.989Z,12332.00
2022-08-22T08:04:40.219Z,12436.00
2022-08-22T08:05:36.165Z,12524.00
2022-08-22T08:06:36.253Z,12580.00
2022-08-22T08:07:36.398Z,12680.00
2022-08-22T08:08:36.512Z,12808.00
2022-08-22T08:09:36.629Z,12912.00
2022-08-22T08:10:36.746Z,13068.00
2022-08-22T08:11:36.844Z,13136.00
2022-08-22T08:12:36.979Z,13272.00
2022-08-22T08:13:37.112Z,13476.00
2022-08-22T08:14:37.094Z,13524.00
2022-08-22T08:15:37.226Z,13720.00
2022-08-22T08:16:37.315Z,13888.00
2022-08-22T08:17:37.430Z,14076.00
2022-08-22T08:18:37.527Z,14240.00
2022-08-22T08:19:37.629Z,14688.00
2022-08-22T08:20:37.723Z,14880.00
2022-08-22T08:21:37.888Z,14688.00
2022-08-22T08:22:37.869Z,15616.00
2022-08-22T08:23:39.598Z,16096.00
2022-08-22T08:24:42.161Z,23328.00
2022-08-22T08:25:39.060Z,30464.00
2022-08-22T08:26:38.128Z,25760.00
2022-08-22T08:27:38.120Z,25632.00
2022-08-22T08:28:38.211Z,27296.00
2022-08-22T08:29:38.270Z,27872.00
2022-08-22T08:30:38.380Z,28512.00
2022-08-22T08:31:43.348Z,29728.00
2022-08-22T08:32:39.583Z,27008.00
2022-08-22T08:33:38.540Z,27168.00
2022-08-22T08:34:38.605Z,28320.00
2022-08-22T08:36:01.972Z,23904.00
2022-08-22T08:36:39.735Z,29760.00
2022-08-22T08:37:38.820Z,33344.00
2022-08-22T08:38:38.911Z,32512.00
2022-08-22T08:39:39.067Z,32416.00
2022-08-22T08:40:39.051Z,32224.00
2022-08-22T08:41:39.124Z,32320.00
2022-08-22T08:42:39.192Z,30880.00
2022-08-22T08:43:39.305Z,29248.00
2022-08-22T08:44:39.380Z,28544.00
2022-08-22T08:45:39.500Z,27872.00
2022-08-22T08:46:39.466Z,26464.00
2022-08-22T08:47:39.868Z,26848.00
2022-08-22T08:48:39.570Z,26304.00
2022-08-22T08:49:42.969Z,26752.00
2022-08-22T08:50:39.712Z,27264.00
2022-08-22T08:51:39.709Z,26976.00
2022-08-22T08:52:39.799Z,26560.00
2022-08-22T08:53:42.802Z,27456.00
2022-08-22T08:54:39.984Z,27008.00
2022-08-22T08:55:40.011Z,24768.00
2022-08-22T08:56:40.081Z,24256.00
2022-08-22T08:57:40.186Z,22720.00
2022-08-22T08:58:40.293Z,22048.00
2022-08-22T09:00:41.353Z,21664.00
2022-08-22T09:01:40.502Z,20864.00
2022-08-22T09:03:41.554Z,22016.00
2022-08-22T09:04:40.611Z,22368.00
2022-08-22T09:05:40.638Z,21920.00
2022-08-22T09:06:42.388Z,21728.00
2022-08-22T09:07:40.702Z,21568.00
2022-08-22T09:08:40.773Z,21664.00
2022-08-22T09:09:40.856Z,21728.00
2022-08-22T09:10:40.936Z,21536.00
2022-08-22T09:11:40.969Z,21216.00
2022-08-22T09:12:56.218Z,21088.00
2022-08-22T09:13:42.085Z,21184.00
2022-08-22T09:14:41.158Z,22016.00
2022-08-22T09:15:41.214Z,23360.00
2022-08-22T09:16:42.592Z,23872.00
2022-08-22T09:17:42.322Z,25408.00
2022-08-22T09:18:41.404Z,27936.00
2022-08-22T09:19:41.494Z,28416.00
2022-08-22T09:20:41.580Z,28160.00
2022-08-22T09:21:41.646Z,30144.00
2022-08-22T09:22:50.743Z,32032.00
2022-08-22T09:23:43.271Z,32288.00
2022-08-22T09:24:41.836Z,31360.00
2022-08-22T09:25:41.815Z,31296.00
2022-08-22T09:26:41.885Z,31520.00
2022-08-22T09:27:41.967Z,30464.00
2022-08-22T09:28:42.069Z,29056.00
2022-08-22T09:29:55.273Z,26112.00
2022-08-22T09:30:43.104Z,23744.00
2022-08-22T09:31:47.519Z,21088.00
2022-08-22T09:32:43.206Z,25984.00
2022-08-22T09:33:42.264Z,24288.00
2022-08-22T09:34:42.350Z,26048.00
2022-08-22T09:35:42.426Z,33472.00
2022-08-22T09:36:42.425Z,34272.00
2022-08-22T09:37:42.496Z,32864.00
2022-08-22T09:38:47.779Z,27136.00
2022-08-22T09:39:43.625Z,21888.00
2022-08-22T09:40:16.231Z,21888.00
2022-08-22T09:40:42.592Z,18432.00
2022-08-22T09:41:42.579Z,18688.00
2022-08-22T09:42:45.002Z,22592.00
2022-08-22T09:43:44.738Z,20576.00
2022-08-22T09:44:43.878Z,22816.00
2022-08-22T09:45:42.902Z,23168.00
2022-08-22T09:46:42.804Z,24608.00
2022-08-22T09:47:42.866Z,25632.00
2022-08-22T09:48:42.925Z,27680.00
2022-08-22T09:49:42.896Z,26944.00
2022-08-22T09:50:42.976Z,27200.00
2022-08-22T09:51:42.986Z,29504.00
2022-08-22T09:52:43.061Z,32256.00
2022-08-22T09:53:43.127Z,32832.00
2022-08-22T09:54:43.189Z,39840.00
2022-08-22T09:55:43.246Z,38720.00
2022-08-22T09:56:43.311Z,36864.00
2022-08-22T09:57:43.370Z,39200.00
2022-08-22T09:58:43.428Z,40896.00
2022-08-22T09:59:43.423Z,41664.00
2022-08-22T10:00:43.526Z,42944.00
2022-08-22T10:01:43.541Z,45920.00
2022-08-22T10:02:43.863Z,47488.00
2022-08-22T10:03:43.446Z,46784.00
2022-08-22T10:04:43.505Z,44672.00
2022-08-22T10:05:44.944Z,45536.00
2022-08-22T10:06:43.603Z,46560.00
2022-08-22T10:07:43.526Z,47232.00
2022-08-22T10:08:45.893Z,46592.00
2022-08-22T10:09:43.599Z,44416.00
2022-08-22T10:10:43.730Z,36736.00
2022-08-22T10:11:43.632Z,38016.00
2022-08-22T10:12:44.768Z,42848.00
2022-08-22T10:13:43.647Z,37472.00
2022-08-22T10:14:43.710Z,37568.00
2022-08-22T10:15:44.719Z,35712.00
2022-08-22T10:16:43.751Z,41248.00
2022-08-22T10:17:43.794Z,42400.00
2022-08-22T10:19:43.180Z,41280.00
2022-08-22T10:20:42.508Z,41024.00
2022-08-22T10:21:41.919Z,44480.00
2022-08-22T10:22:42.130Z,40768.00
2022-08-22T10:23:42.346Z,34560.00
2022-08-22T10:24:44.104Z,30528.00
2022-08-22T10:25:42.827Z,26528.00
2022-08-22T10:26:42.984Z,27104.00
2022-08-22T10:27:43.186Z,29696.00
2022-08-22T10:28:43.413Z,28416.00
2022-08-22T10:29:43.547Z,33856.00
2022-08-22T10:30:43.734Z,33920.00
2022-08-22T10:31:58.573Z,31616.00
2022-08-22T10:32:45.170Z,40384.00
2022-08-22T10:33:44.481Z,36224.00
2022-08-22T10:34:44.926Z,44288.00
2022-08-22T10:35:44.764Z,45472.00
2022-08-22T10:36:44.921Z,47712.00
2022-08-22T10:37:46.187Z,44512.00
2022-08-22T10:38:46.626Z,44416.00
2022-08-22T10:39:45.578Z,43072.00
2022-08-22T10:40:47.136Z,40896.00
2022-08-22T10:41:45.880Z,32960.00
2022-08-22T10:42:46.094Z,26464.00
2022-08-22T10:43:46.289Z,25792.00
2022-08-22T10:44:46.501Z,31296.00
2022-08-22T10:45:46.662Z,35392.00
2022-08-22T10:46:46.865Z,42496.00
2022-08-22T10:47:47.052Z,41632.00
2022-08-22T10:48:47.259Z,45440.00
2022-08-22T10:49:47.547Z,35776.00
2022-08-22T10:50:47.749Z,25088.00
2022-08-22T10:51:47.727Z,29696.00
2022-08-22T10:52:47.907Z,26688.00
2022-08-22T10:53:48.089Z,22496.00
2022-08-22T10:54:48.286Z,25088.00
2022-08-22T10:55:48.481Z,29888.00
2022-08-22T10:56:48.646Z,35776.00
2022-08-22T10:57:52.705Z,37024.00
2022-08-22T10:58:49.033Z,32992.00
2022-08-22T10:59:49.008Z,32256.00
2022-08-22T11:00:50.068Z,23424.00
2022-08-22T11:01:49.388Z,26336.00
2022-08-22T11:02:49.532Z,30944.00
2022-08-22T11:03:49.705Z,33664.00
2022-08-22T11:04:49.980Z,37504.00
2022-08-22T11:05:51.114Z,36800.00
2022-08-22T11:06:50.357Z,31840.00
2022-08-22T11:07:50.601Z,28192.00
2022-08-22T11:08:50.736Z,26464.00
2022-08-22T11:09:50.839Z,29568.00
2022-08-22T11:10:52.205Z,36576.00
2022-08-22T11:11:51.232Z,38592.00
2022-08-22T11:12:51.455Z,40192.00
2022-08-22T11:13:51.661Z,37888.00
2022-08-22T11:14:51.922Z,34848.00
2022-08-22T11:15:52.065Z,41536.00
2022-08-22T11:16:55.395Z,42464.00
2022-08-22T11:17:53.894Z,43296.00
2022-08-22T11:19:02.680Z,47712.00
2022-08-22T11:19:53.777Z,51680.00
2022-08-22T11:20:52.932Z,52096.00
2022-08-22T11:21:53.160Z,38624.00
2022-08-22T11:22:55.773Z,54560.00
2022-08-22T11:23:53.497Z,63584.00
2022-08-22T11:24:55.795Z,66048.00
2022-08-22T11:25:54.221Z,69792.00
2022-08-22T11:26:54.082Z,67424.00
2022-08-22T11:27:54.171Z,64640.00
2022-08-22T11:28:54.346Z,64288.00
2022-08-22T11:29:54.484Z,53568.00
2022-08-22T11:30:54.654Z,51392.00
2022-08-22T11:31:54.876Z,39904.00
2022-08-22T11:32:59.425Z,36704.00
2022-08-22T11:33:55.222Z,37216.00
2022-08-22T11:34:55.327Z,30272.00
2022-08-22T11:35:56.143Z,18432.00
2022-08-22T11:36:55.565Z,13412.00
2022-08-22T11:37:56.521Z,14048.00
2022-08-22T11:38:55.860Z,15936.00
2022-08-22T11:39:56.112Z,43360.00
2022-08-22T11:40:56.204Z,44128.00
2022-08-22T11:41:56.446Z,48096.00
2022-08-22T11:42:56.617Z,38560.00
2022-08-22T11:43:56.828Z,31936.00
2022-08-22T11:44:56.897Z,40224.00
2022-08-22T11:45:57.128Z,15136.00
2022-08-22T11:46:57.303Z,13704.00
2022-08-22T11:47:57.395Z,13524.00
2022-08-22T11:48:57.502Z,13728.00
2022-08-22T11:49:57.696Z,14156.00
2022-08-22T11:50:57.830Z,15104.00
2022-08-22T11:51:58.040Z,27360.00
2022-08-22T11:52:58.155Z,19136.00
2022-08-22T11:53:58.262Z,26592.00
2022-08-22T11:54:58.452Z,26080.00
2022-08-22T11:55:58.606Z,28448.00
2022-08-22T11:56:58.848Z,28256.00
2022-08-22T11:57:59.068Z,25344.00
2022-08-22T11:58:59.248Z,25216.00
2022-08-22T12:00:01.317Z,21632.00
2022-08-22T12:00:59.715Z,20448.00
2022-08-22T12:01:59.979Z,19200.00
2022-08-22T12:03:01.126Z,18112.00
2022-08-22T12:04:00.304Z,17888.00
2022-08-22T12:05:00.524Z,16704.00
2022-08-22T12:06:00.627Z,15264.00
2022-08-22T12:07:00.870Z,14024.00
2022-08-22T12:08:01.100Z,12820.00
2022-08-22T12:09:01.296Z,12632.00
2022-08-22T12:10:01.462Z,12972.00
2022-08-22T12:11:01.680Z,13188.00
2022-08-22T12:12:01.958Z,13336.00
2022-08-22T12:13:02.144Z,13568.00
2022-08-22T12:14:06.399Z,13916.00
2022-08-22T12:15:02.616Z,18464.00
2022-08-22T12:16:02.878Z,18240.00
2022-08-22T12:17:03.094Z,14448.00
2022-08-22T12:18:03.323Z,16224.00
2022-08-22T12:19:03.533Z,18624.00